sensor_id;sensor_type;location;lat;lon;timestamp;P1;durP1;ratioP1;P2;durP2;ratioP2
75718;SDS011;64340;48.534;-3.036;2023-04-24T00:00:34;1.95;;;1.15;;
75718;SDS011;64340;48.534;-3.036;2023-04-24T00:03:01;10.43;;;1.60;;
75718;SDS011;64340;48.534;-3.036;2023-04-24T00:05:28;5.13;;;1.30;;
75718;SDS011;64340;48.534;-3.036;2023-04-24T00:07:53;3.70;;;1.10;;
75718;SDS011;64340;48.534;-3.036;2023-04-24T00:10:20;2.10;;;1.00;;
75718;SDS011;64340;48.534;-3.036;2023-04-24T00:12:46;3.83;;;1.30;;
75718;SDS011;64340;48.534;-3.036;2023-04-24T00:15:12;2.33;;;1.15;;
75718;SDS011;64340;48.534;-3.036;2023-04-24T00:17:38;2.13;;;1.10;;
75718;SDS011;64340;48.534;-3.036;2023-04-24T00:20:04;3.65;;;1.10;;
75718;SDS011;64340;48.534;-3.036;2023-04-24T00:22:32;2.78;;;1.08;;
75718;SDS011;64340;48.534;-3.036;2023-04-24T00:24:58;3.78;;;1.02;;
75718;SDS011;64340;48.534;-3.036;2023-04-24T00:27:24;2.55;;;1.15;;
75718;SDS011;64340;48.534;-3.036;2023-04-24T00:29:50;3.03;;;1.00;;
75718;SDS011;64340;48.534;-3.036;2023-04-24T00:32:16;2.72;;;1.15;;
75718;SDS011;64340;48.534;-3.036;2023-04-24T00:34:42;2.80;;;1.38;;
75718;SDS011;64340;48.534;-3.036;2023-04-24T00:37:08;2.30;;;1.10;;
75718;SDS011;64340;48.534;-3.036;2023-04-24T00:39:34;1.70;;;0.90;;
75718;SDS011;64340;48.534;-3.036;2023-04-24T00:41:59;2.90;;;1.00;;
75718;SDS011;64340;48.534;-3.036;2023-04-24T00:44:26;2.97;;;1.08;;
75718;SDS011;64340;48.534;-3.036;2023-04-24T00:46:53;3.53;;;1.27;;
75718;SDS011;64340;48.534;-3.036;2023-04-24T00:49:23;2.70;;;1.13;;
75718;SDS011;64340;48.534;-3.036;2023-04-24T00:51:49;2.63;;;1.10;;
75718;SDS011;64340;48.534;-3.036;2023-04-24T00:54:16;1.88;;;1.08;;
75718;SDS011;64340;48.534;-3.036;2023-04-24T00:56:43;1.92;;;1.15;;
75718;SDS011;64340;48.534;-3.036;2023-04-24T00:59:09;2.85;;;1.10;;
75718;SDS011;64340;48.534;-3.036;2023-04-24T01:01:36;4.03;;;1.40;;
75718;SDS011;64340;48.534;-3.036;2023-04-24T01:04:07;1.85;;;0.95;;
75718;SDS011;64340;48.534;-3.036;2023-04-24T01:06:35;2.35;;;1.02;;
75718;SDS011;64340;48.534;-3.036;2023-04-24T01:09:06;1.80;;;0.95;;
75718;SDS011;64340;48.534;-3.036;2023-04-24T01:11:35;2.65;;;1.00;;
75718;SDS011;64340;48.534;-3.036;2023-04-24T01:14:02;2.05;;;0.90;;
75718;SDS011;64340;48.534;-3.036;2023-04-24T01:16:28;2.15;;;1.20;;
75718;SDS011;64340;48.534;-3.036;2023-04-24T01:18:54;2.47;;;1.00;;
75718;SDS011;64340;48.534;-3.036;2023-04-24T01:21:20;3.03;;;0.90;;
75718;SDS011;64340;48.534;-3.036;2023-04-24T01:23:46;2.17;;;1.10;;
75718;SDS011;64340;48.534;-3.036;2023-04-24T01:26:13;26.55;;;2.20;;
75718;SDS011;64340;48.534;-3.036;2023-04-24T01:28:41;2.60;;;1.00;;
75718;SDS011;64340;48.534;-3.036;2023-04-24T01:31:07;3.20;;;1.05;;
75718;SDS011;64340;48.534;-3.036;2023-04-24T01:33:33;2.05;;;1.00;;
75718;SDS011;64340;48.534;-3.036;2023-04-24T01:35:59;2.38;;;1.10;;
75718;SDS011;64340;48.534;-3.036;2023-04-24T01:38:25;1.80;;;0.80;;
75718;SDS011;64340;48.534;-3.036;2023-04-24T01:40:51;2.53;;;0.80;;
75718;SDS011;64340;48.534;-3.036;2023-04-24T01:43:18;2.00;;;1.00;;
75718;SDS011;64340;48.534;-3.036;2023-04-24T01:45:44;1.40;;;0.80;;
75718;SDS011;64340;48.534;-3.036;2023-04-24T01:48:11;2.90;;;1.05;;
75718;SDS011;64340;48.534;-3.036;2023-04-24T01:50:37;1.98;;;0.90;;
75718;SDS011;64340;48.534;-3.036;2023-04-24T01:53:03;3.28;;;0.95;;
75718;SDS011;64340;48.534;-3.036;2023-04-24T01:55:29;1.60;;;0.90;;
75718;SDS011;64340;48.534;-3.036;2023-04-24T01:57:55;2.13;;;0.80;;
75718;SDS011;64340;48.534;-3.036;2023-04-24T02:00:22;1.80;;;0.85;;
75718;SDS011;64340;48.534;-3.036;2023-04-24T02:02:49;1.83;;;1.00;;
75718;SDS011;64340;48.534;-3.036;2023-04-24T02:05:15;1.60;;;0.70;;
75718;SDS011;64340;48.534;-3.036;2023-04-24T02:07:41;2.47;;;1.00;;
75718;SDS011;64340;48.534;-3.036;2023-04-24T02:10:07;1.85;;;0.80;;
75718;SDS011;64340;48.534;-3.036;2023-04-24T02:12:33;2.80;;;1.08;;
75718;SDS011;64340;48.534;-3.036;2023-04-24T02:14:59;2.63;;;1.00;;
75718;SDS011;64340;48.534;-3.036;2023-04-24T02:17:25;1.23;;;0.63;;
75718;SDS011;64340;48.534;-3.036;2023-04-24T02:19:50;1.60;;;0.77;;
75718;SDS011;64340;48.534;-3.036;2023-04-24T02:22:16;1.63;;;0.82;;
75718;SDS011;64340;48.534;-3.036;2023-04-24T02:24:42;2.33;;;0.80;;
75718;SDS011;64340;48.534;-3.036;2023-04-24T02:27:08;1.58;;;0.60;;
75718;SDS011;64340;48.534;-3.036;2023-04-24T02:29:34;2.03;;;0.85;;
75718;SDS011;64340;48.534;-3.036;2023-04-24T02:32:00;1.77;;;0.95;;
75718;SDS011;64340;48.534;-3.036;2023-04-24T02:34:26;1.55;;;0.65;;
75718;SDS011;64340;48.534;-3.036;2023-04-24T02:36:51;2.80;;;0.82;;
75718;SDS011;64340;48.534;-3.036;2023-04-24T02:39:18;2.42;;;1.10;;
75718;SDS011;64340;48.534;-3.036;2023-04-24T02:41:45;1.52;;;0.90;;
75718;SDS011;64340;48.534;-3.036;2023-04-24T02:44:11;2.22;;;1.00;;
75718;SDS011;64340;48.534;-3.036;2023-04-24T02:46:37;2.20;;;0.80;;
75718;SDS011;64340;48.534;-3.036;2023-04-24T02:49:03;2.35;;;0.93;;
75718;SDS011;64340;48.534;-3.036;2023-04-24T02:51:29;2.15;;;0.70;;
75718;SDS011;64340;48.534;-3.036;2023-04-24T02:53:55;2.22;;;0.90;;
75718;SDS011;64340;48.534;-3.036;2023-04-24T02:56:21;3.97;;;0.95;;
75718;SDS011;64340;48.534;-3.036;2023-04-24T02:58:47;1.65;;;0.80;;
75718;SDS011;64340;48.534;-3.036;2023-04-24T03:01:13;2.22;;;0.90;;
75718;SDS011;64340;48.534;-3.036;2023-04-24T03:03:39;2.17;;;0.70;;
75718;SDS011;64340;48.534;-3.036;2023-04-24T03:06:05;2.17;;;0.88;;
75718;SDS011;64340;48.534;-3.036;2023-04-24T03:08:33;2.13;;;0.82;;
75718;SDS011;64340;48.534;-3.036;2023-04-24T03:10:58;2.33;;;0.70;;
75718;SDS011;64340;48.534;-3.036;2023-04-24T03:13:24;1.42;;;0.68;;
75718;SDS011;64340;48.534;-3.036;2023-04-24T03:15:50;1.88;;;0.82;;
75718;SDS011;64340;48.534;-3.036;2023-04-24T03:18:16;1.40;;;0.70;;
75718;SDS011;64340;48.534;-3.036;2023-04-24T03:20:42;1.90;;;0.90;;
75718;SDS011;64340;48.534;-3.036;2023-04-24T03:23:11;1.65;;;0.85;;
75718;SDS011;64340;48.534;-3.036;2023-04-24T03:25:37;2.08;;;0.70;;
75718;SDS011;64340;48.534;-3.036;2023-04-24T03:28:02;1.25;;;0.70;;
75718;SDS011;64340;48.534;-3.036;2023-04-24T03:30:28;1.55;;;0.82;;
75718;SDS011;64340;48.534;-3.036;2023-04-24T03:32:54;1.30;;;0.73;;
75718;SDS011;64340;48.534;-3.036;2023-04-24T03:35:20;1.52;;;0.63;;
75718;SDS011;64340;48.534;-3.036;2023-04-24T03:37:47;3.28;;;0.73;;
75718;SDS011;64340;48.534;-3.036;2023-04-24T03:40:12;1.60;;;0.88;;
75718;SDS011;64340;48.534;-3.036;2023-04-24T03:42:38;1.75;;;0.70;;
75718;SDS011;64340;48.534;-3.036;2023-04-24T03:45:04;2.03;;;0.80;;
75718;SDS011;64340;48.534;-3.036;2023-04-24T03:47:30;1.55;;;0.70;;
75718;SDS011;64340;48.534;-3.036;2023-04-24T03:49:56;1.60;;;0.80;;
75718;SDS011;64340;48.534;-3.036;2023-04-24T03:52:22;1.33;;;0.70;;
75718;SDS011;64340;48.534;-3.036;2023-04-24T03:54:48;2.47;;;0.82;;
75718;SDS011;64340;48.534;-3.036;2023-04-24T03:57:13;1.98;;;0.80;;
75718;SDS011;64340;48.534;-3.036;2023-04-24T03:59:39;1.95;;;0.90;;
75718;SDS011;64340;48.534;-3.036;2023-04-24T04:02:05;2.85;;;0.90;;
75718;SDS011;64340;48.534;-3.036;2023-04-24T04:04:30;1.67;;;0.70;;
75718;SDS011;64340;48.534;-3.036;2023-04-24T04:06:56;1.30;;;0.80;;
75718;SDS011;64340;48.534;-3.036;2023-04-24T04:09:26;2.03;;;0.82;;
75718;SDS011;64340;48.534;-3.036;2023-04-24T04:11:52;1.92;;;0.80;;
75718;SDS011;64340;48.534;-3.036;2023-04-24T04:14:18;1.15;;;0.70;;
75718;SDS011;64340;48.534;-3.036;2023-04-24T04:16:44;1.75;;;0.70;;
75718;SDS011;64340;48.534;-3.036;2023-04-24T04:19:10;2.08;;;0.70;;
75718;SDS011;64340;48.534;-3.036;2023-04-24T04:21:35;3.08;;;0.88;;
75718;SDS011;64340;48.534;-3.036;2023-04-24T04:24:01;1.90;;;0.98;;
75718;SDS011;64340;48.534;-3.036;2023-04-24T04:26:27;3.47;;;1.20;;
75718;SDS011;64340;48.534;-3.036;2023-04-24T04:28:53;2.53;;;1.30;;
75718;SDS011;64340;48.534;-3.036;2023-04-24T04:31:19;2.42;;;1.00;;
75718;SDS011;64340;48.534;-3.036;2023-04-24T04:33:46;2.05;;;0.85;;
75718;SDS011;64340;48.534;-3.036;2023-04-24T04:36:11;3.92;;;1.13;;
75718;SDS011;64340;48.534;-3.036;2023-04-24T04:38:37;4.38;;;1.75;;
75718;SDS011;64340;48.534;-3.036;2023-04-24T04:41:03;8.40;;;1.83;;
75718;SDS011;64340;48.534;-3.036;2023-04-24T04:43:29;4.90;;;1.30;;
75718;SDS011;64340;48.534;-3.036;2023-04-24T04:45:56;6.18;;;1.50;;
75718;SDS011;64340;48.534;-3.036;2023-04-24T04:48:23;8.85;;;1.45;;
75718;SDS011;64340;48.534;-3.036;2023-04-24T04:50:48;20.13;;;2.45;;
75718;SDS011;64340;48.534;-3.036;2023-04-24T04:53:14;5.95;;;1.67;;
75718;SDS011;64340;48.534;-3.036;2023-04-24T04:55:40;5.22;;;1.45;;
75718;SDS011;64340;48.534;-3.036;2023-04-24T04:58:06;6.93;;;1.52;;
75718;SDS011;64340;48.534;-3.036;2023-04-24T05:00:32;4.30;;;1.50;;
75718;SDS011;64340;48.534;-3.036;2023-04-24T05:03:01;7.85;;;1.80;;
75718;SDS011;64340;48.534;-3.036;2023-04-24T05:05:27;3.90;;;1.77;;
75718;SDS011;64340;48.534;-3.036;2023-04-24T05:07:53;8.20;;;1.88;;
75718;SDS011;64340;48.534;-3.036;2023-04-24T05:10:19;6.65;;;1.55;;
75718;SDS011;64340;48.534;-3.036;2023-04-24T05:12:44;8.95;;;1.77;;
75718;SDS011;64340;48.534;-3.036;2023-04-24T05:15:10;5.75;;;1.80;;
75718;SDS011;64340;48.534;-3.036;2023-04-24T05:17:36;5.38;;;1.70;;
75718;SDS011;64340;48.534;-3.036;2023-04-24T05:20:03;6.30;;;1.60;;
75718;SDS011;64340;48.534;-3.036;2023-04-24T05:22:32;4.32;;;1.60;;
75718;SDS011;64340;48.534;-3.036;2023-04-24T05:24:58;5.70;;;1.48;;
75718;SDS011;64340;48.534;-3.036;2023-04-24T05:27:24;4.63;;;1.30;;
75718;SDS011;64340;48.534;-3.036;2023-04-24T05:29:50;5.45;;;1.45;;
75718;SDS011;64340;48.534;-3.036;2023-04-24T05:32:16;5.75;;;1.20;;
75718;SDS011;64340;48.534;-3.036;2023-04-24T05:34:42;4.68;;;1.50;;
75718;SDS011;64340;48.534;-3.036;2023-04-24T05:37:08;4.50;;;1.75;;
75718;SDS011;64340;48.534;-3.036;2023-04-24T05:39:35;4.70;;;1.58;;
75718;SDS011;64340;48.534;-3.036;2023-04-24T05:42:01;6.60;;;1.40;;
75718;SDS011;64340;48.534;-3.036;2023-04-24T05:44:28;7.35;;;1.70;;
75718;SDS011;64340;48.534;-3.036;2023-04-24T05:46:54;3.63;;;1.20;;
75718;SDS011;64340;48.534;-3.036;2023-04-24T05:49:21;9.10;;;1.60;;
75718;SDS011;64340;48.534;-3.036;2023-04-24T05:51:46;4.70;;;1.30;;
75718;SDS011;64340;48.534;-3.036;2023-04-24T05:54:12;4.35;;;1.17;;
75718;SDS011;64340;48.534;-3.036;2023-04-24T05:56:38;4.28;;;1.20;;
75718;SDS011;64340;48.534;-3.036;2023-04-24T05:59:04;3.80;;;1.40;;
75718;SDS011;64340;48.534;-3.036;2023-04-24T06:01:30;2.03;;;1.20;;
75718;SDS011;64340;48.534;-3.036;2023-04-24T06:03:56;3.20;;;1.70;;
75718;SDS011;64340;48.534;-3.036;2023-04-24T06:06:23;3.63;;;1.23;;
75718;SDS011;64340;48.534;-3.036;2023-04-24T06:08:49;3.10;;;1.40;;
75718;SDS011;64340;48.534;-3.036;2023-04-24T06:11:15;4.30;;;1.15;;
75718;SDS011;64340;48.534;-3.036;2023-04-24T06:13:41;2.28;;;1.00;;
75718;SDS011;64340;48.534;-3.036;2023-04-24T06:16:07;2.67;;;1.00;;
75718;SDS011;64340;48.534;-3.036;2023-04-24T06:18:32;4.38;;;1.20;;
75718;SDS011;64340;48.534;-3.036;2023-04-24T06:20:58;3.75;;;1.23;;
75718;SDS011;64340;48.534;-3.036;2023-04-24T06:23:24;3.17;;;1.10;;
75718;SDS011;64340;48.534;-3.036;2023-04-24T06:25:50;4.03;;;1.40;;
75718;SDS011;64340;48.534;-3.036;2023-04-24T06:28:16;5.07;;;1.30;;
75718;SDS011;64340;48.534;-3.036;2023-04-24T06:30:42;3.20;;;1.00;;
75718;SDS011;64340;48.534;-3.036;2023-04-24T06:33:08;2.45;;;1.13;;
75718;SDS011;64340;48.534;-3.036;2023-04-24T06:35:35;4.03;;;1.27;;
75718;SDS011;64340;48.534;-3.036;2023-04-24T06:38:02;2.88;;;1.13;;
75718;SDS011;64340;48.534;-3.036;2023-04-24T06:40:28;2.97;;;1.05;;
75718;SDS011;64340;48.534;-3.036;2023-04-24T06:42:55;2.85;;;1.23;;
75718;SDS011;64340;48.534;-3.036;2023-04-24T06:45:20;3.05;;;1.27;;
75718;SDS011;64340;48.534;-3.036;2023-04-24T06:47:46;2.72;;;1.10;;
75718;SDS011;64340;48.534;-3.036;2023-04-24T06:50:12;3.78;;;1.30;;
75718;SDS011;64340;48.534;-3.036;2023-04-24T06:52:38;3.28;;;1.17;;
75718;SDS011;64340;48.534;-3.036;2023-04-24T06:55:04;3.53;;;1.17;;
75718;SDS011;64340;48.534;-3.036;2023-04-24T06:57:31;4.05;;;1.13;;
75718;SDS011;64340;48.534;-3.036;2023-04-24T06:59:57;4.40;;;1.65;;
75718;SDS011;64340;48.534;-3.036;2023-04-24T07:02:22;2.38;;;1.10;;
75718;SDS011;64340;48.534;-3.036;2023-04-24T07:04:49;2.58;;;1.10;;
75718;SDS011;64340;48.534;-3.036;2023-04-24T07:07:15;2.28;;;1.20;;
75718;SDS011;64340;48.534;-3.036;2023-04-24T07:09:41;4.80;;;1.55;;
75718;SDS011;64340;48.534;-3.036;2023-04-24T07:12:09;2.72;;;1.00;;
75718;SDS011;64340;48.534;-3.036;2023-04-24T07:14:35;2.83;;;1.23;;
75718;SDS011;64340;48.534;-3.036;2023-04-24T07:17:02;2.45;;;1.02;;
75718;SDS011;64340;48.534;-3.036;2023-04-24T07:19:29;4.18;;;1.20;;
75718;SDS011;64340;48.534;-3.036;2023-04-24T07:21:55;3.88;;;1.45;;
75718;SDS011;64340;48.534;-3.036;2023-04-24T07:24:20;3.13;;;1.17;;
75718;SDS011;64340;48.534;-3.036;2023-04-24T07:26:46;2.63;;;0.90;;
75718;SDS011;64340;48.534;-3.036;2023-04-24T07:29:12;4.38;;;1.10;;
75718;SDS011;64340;48.534;-3.036;2023-04-24T07:31:39;3.05;;;1.20;;
75718;SDS011;64340;48.534;-3.036;2023-04-24T07:34:06;5.93;;;1.30;;
75718;SDS011;64340;48.534;-3.036;2023-04-24T07:36:31;1.92;;;1.00;;
75718;SDS011;64340;48.534;-3.036;2023-04-24T07:38:57;2.38;;;0.98;;
75718;SDS011;64340;48.534;-3.036;2023-04-24T07:41:23;3.28;;;1.10;;
75718;SDS011;64340;48.534;-3.036;2023-04-24T07:43:49;2.05;;;1.10;;
75718;SDS011;64340;48.534;-3.036;2023-04-24T07:46:15;2.42;;;1.10;;
75718;SDS011;64340;48.534;-3.036;2023-04-24T07:48:41;3.15;;;1.30;;
75718;SDS011;64340;48.534;-3.036;2023-04-24T07:51:07;2.95;;;1.00;;
75718;SDS011;64340;48.534;-3.036;2023-04-24T07:53:36;4.38;;;1.42;;
75718;SDS011;64340;48.534;-3.036;2023-04-24T07:56:01;2.72;;;1.02;;
75718;SDS011;64340;48.534;-3.036;2023-04-24T07:58:27;3.28;;;1.30;;
75718;SDS011;64340;48.534;-3.036;2023-04-24T08:00:53;2.47;;;1.10;;
75718;SDS011;64340;48.534;-3.036;2023-04-24T08:03:18;3.17;;;1.02;;
75718;SDS011;64340;48.534;-3.036;2023-04-24T08:05:45;2.67;;;1.20;;
75718;SDS011;64340;48.534;-3.036;2023-04-24T08:08:11;4.10;;;1.17;;
75718;SDS011;64340;48.534;-3.036;2023-04-24T08:10:37;4.10;;;1.00;;
75718;SDS011;64340;48.534;-3.036;2023-04-24T08:13:03;2.17;;;0.85;;
75718;SDS011;64340;48.534;-3.036;2023-04-24T08:15:28;2.30;;;1.10;;
75718;SDS011;64340;48.534;-3.036;2023-04-24T08:17:55;3.05;;;1.10;;
75718;SDS011;64340;48.534;-3.036;2023-04-24T08:20:20;2.58;;;1.00;;
75718;SDS011;64340;48.534;-3.036;2023-04-24T08:22:46;4.38;;;1.30;;
75718;SDS011;64340;48.534;-3.036;2023-04-24T08:25:13;3.78;;;1.10;;
75718;SDS011;64340;48.534;-3.036;2023-04-24T08:27:39;2.83;;;1.30;;
75718;SDS011;64340;48.534;-3.036;2023-04-24T08:30:05;2.95;;;1.00;;
75718;SDS011;64340;48.534;-3.036;2023-04-24T08:32:32;3.35;;;1.38;;
75718;SDS011;64340;48.534;-3.036;2023-04-24T08:34:58;2.53;;;1.13;;
75718;SDS011;64340;48.534;-3.036;2023-04-24T08:37:25;3.05;;;1.25;;
75718;SDS011;64340;48.534;-3.036;2023-04-24T08:39:51;2.50;;;1.05;;
75718;SDS011;64340;48.534;-3.036;2023-04-24T08:42:18;3.70;;;1.27;;
75718;SDS011;64340;48.534;-3.036;2023-04-24T08:44:45;2.45;;;1.13;;
75718;SDS011;64340;48.534;-3.036;2023-04-24T08:47:11;2.33;;;1.00;;
75718;SDS011;64340;48.534;-3.036;2023-04-24T08:49:37;4.32;;;1.25;;
75718;SDS011;64340;48.534;-3.036;2023-04-24T08:52:07;3.88;;;1.05;;
75718;SDS011;64340;48.534;-3.036;2023-04-24T08:57:02;3.25;;;0.95;;
75718;SDS011;64340;48.534;-3.036;2023-04-24T08:59:29;3.75;;;0.90;;
75718;SDS011;64340;48.534;-3.036;2023-04-24T09:01:55;2.38;;;1.13;;
75718;SDS011;64340;48.534;-3.036;2023-04-24T09:04:22;2.63;;;1.15;;
75718;SDS011;64340;48.534;-3.036;2023-04-24T09:06:52;3.33;;;1.20;;
75718;SDS011;64340;48.534;-3.036;2023-04-24T09:09:21;5.95;;;1.30;;
75718;SDS011;64340;48.534;-3.036;2023-04-24T09:11:51;2.67;;;1.40;;
75718;SDS011;64340;48.534;-3.036;2023-04-24T09:14:18;3.03;;;1.10;;
75718;SDS011;64340;48.534;-3.036;2023-04-24T09:16:45;3.28;;;1.17;;
75718;SDS011;64340;48.534;-3.036;2023-04-24T09:19:11;2.30;;;1.13;;
75718;SDS011;64340;48.534;-3.036;2023-04-24T09:21:37;2.50;;;1.23;;
75718;SDS011;64340;48.534;-3.036;2023-04-24T09:24:07;3.00;;;1.00;;
75718;SDS011;64340;48.534;-3.036;2023-04-24T09:26:39;2.58;;;1.17;;
75718;SDS011;64340;48.534;-3.036;2023-04-24T09:29:05;2.42;;;1.08;;
75718;SDS011;64340;48.534;-3.036;2023-04-24T09:31:31;3.75;;;1.13;;
75718;SDS011;64340;48.534;-3.036;2023-04-24T09:33:58;2.78;;;0.95;;
75718;SDS011;64340;48.534;-3.036;2023-04-24T09:36:31;1.85;;;1.10;;
75718;SDS011;64340;48.534;-3.036;2023-04-24T09:39:06;2.60;;;1.20;;
75718;SDS011;64340;48.534;-3.036;2023-04-24T09:41:35;3.28;;;1.00;;
75718;SDS011;64340;48.534;-3.036;2023-04-24T09:44:15;2.72;;;1.17;;
75718;SDS011;64340;48.534;-3.036;2023-04-24T09:46:43;4.40;;;1.23;;
75718;SDS011;64340;48.534;-3.036;2023-04-24T09:49:12;4.00;;;1.10;;
75718;SDS011;64340;48.534;-3.036;2023-04-24T09:51:40;2.38;;;0.90;;
75718;SDS011;64340;48.534;-3.036;2023-04-24T09:54:16;2.70;;;1.10;;
75718;SDS011;64340;48.534;-3.036;2023-04-24T09:56:47;5.45;;;2.17;;
75718;SDS011;64340;48.534;-3.036;2023-04-24T09:59:15;4.57;;;2.40;;
75718;SDS011;64340;48.534;-3.036;2023-04-24T10:01:44;5.32;;;2.20;;
75718;SDS011;64340;48.534;-3.036;2023-04-24T10:04:18;5.43;;;2.00;;
75718;SDS011;64340;48.534;-3.036;2023-04-24T10:06:46;6.10;;;2.85;;
75718;SDS011;64340;48.534;-3.036;2023-04-24T10:09:17;7.10;;;4.07;;
75718;SDS011;64340;48.534;-3.036;2023-04-24T10:11:49;8.20;;;5.05;;
75718;SDS011;64340;48.534;-3.036;2023-04-24T10:14:20;9.10;;;5.97;;
75718;SDS011;64340;48.534;-3.036;2023-04-24T10:16:47;9.65;;;6.47;;
75718;SDS011;64340;48.534;-3.036;2023-04-24T10:19:14;10.23;;;6.53;;
75718;SDS011;64340;48.534;-3.036;2023-04-24T10:21:41;10.80;;;6.43;;
75718;SDS011;64340;48.534;-3.036;2023-04-24T10:24:14;9.50;;;6.25;;
75718;SDS011;64340;48.534;-3.036;2023-04-24T10:26:42;9.85;;;6.50;;
75718;SDS011;64340;48.534;-3.036;2023-04-24T10:29:09;9.52;;;6.45;;
75718;SDS011;64340;48.534;-3.036;2023-04-24T10:31:37;9.77;;;6.60;;
75718;SDS011;64340;48.534;-3.036;2023-04-24T10:34:07;10.38;;;6.60;;
75718;SDS011;64340;48.534;-3.036;2023-04-24T10:36:35;8.75;;;5.97;;
75718;SDS011;64340;48.534;-3.036;2023-04-24T10:39:06;9.82;;;6.13;;
75718;SDS011;64340;48.534;-3.036;2023-04-24T10:41:36;8.13;;;6.03;;
75718;SDS011;64340;48.534;-3.036;2023-04-24T10:44:06;8.82;;;5.63;;
75718;SDS011;64340;48.534;-3.036;2023-04-24T10:46:33;7.57;;;5.50;;
75718;SDS011;64340;48.534;-3.036;2023-04-24T10:49:00;6.80;;;4.85;;
75718;SDS011;64340;48.534;-3.036;2023-04-24T10:51:53;9.27;;;5.50;;
75718;SDS011;64340;48.534;-3.036;2023-04-24T10:54:22;9.85;;;5.60;;
75718;SDS011;64340;48.534;-3.036;2023-04-24T10:56:52;7.65;;;5.25;;
75718;SDS011;64340;48.534;-3.036;2023-04-24T10:59:27;8.07;;;5.20;;
75718;SDS011;64340;48.534;-3.036;2023-04-24T11:01:59;7.88;;;5.25;;
75718;SDS011;64340;48.534;-3.036;2023-04-24T11:04:32;7.78;;;4.90;;
75718;SDS011;64340;48.534;-3.036;2023-04-24T11:06:58;7.53;;;4.70;;
75718;SDS011;64340;48.534;-3.036;2023-04-24T11:09:27;7.35;;;4.70;;
75718;SDS011;64340;48.534;-3.036;2023-04-24T11:12:08;7.07;;;4.63;;
75718;SDS011;64340;48.534;-3.036;2023-04-24T11:17:38;6.97;;;4.65;;
75718;SDS011;64340;48.534;-3.036;2023-04-24T11:20:11;6.22;;;4.35;;
75718;SDS011;64340;48.534;-3.036;2023-04-24T11:22:38;7.72;;;4.60;;
75718;SDS011;64340;48.534;-3.036;2023-04-24T11:25:07;7.80;;;4.63;;
75718;SDS011;64340;48.534;-3.036;2023-04-24T11:27:41;6.00;;;4.03;;
75718;SDS011;64340;48.534;-3.036;2023-04-24T11:30:08;6.50;;;4.38;;
75718;SDS011;64340;48.534;-3.036;2023-04-24T11:32:36;6.25;;;4.03;;
75718;SDS011;64340;48.534;-3.036;2023-04-24T11:37:39;8.25;;;4.32;;
75718;SDS011;64340;48.534;-3.036;2023-04-24T11:40:07;5.50;;;4.00;;
75718;SDS011;64340;48.534;-3.036;2023-04-24T11:42:40;6.80;;;4.25;;
75718;SDS011;64340;48.534;-3.036;2023-04-24T11:45:11;6.90;;;4.45;;
75718;SDS011;64340;48.534;-3.036;2023-04-24T11:47:39;6.85;;;3.85;;
75718;SDS011;64340;48.534;-3.036;2023-04-24T11:50:07;5.68;;;3.78;;
75718;SDS011;64340;48.534;-3.036;2023-04-24T11:52:38;6.75;;;3.85;;
75718;SDS011;64340;48.534;-3.036;2023-04-24T11:57:44;6.60;;;3.85;;
75718;SDS011;64340;48.534;-3.036;2023-04-24T12:00:21;7.00;;;3.67;;
75718;SDS011;64340;48.534;-3.036;2023-04-24T12:03:09;6.00;;;3.67;;
75718;SDS011;64340;48.534;-3.036;2023-04-24T12:05:36;7.13;;;3.90;;
75718;SDS011;64340;48.534;-3.036;2023-04-24T12:08:03;5.90;;;3.42;;
75718;SDS011;64340;48.534;-3.036;2023-04-24T12:10:30;5.90;;;3.70;;
75718;SDS011;64340;48.534;-3.036;2023-04-24T12:12:57;4.88;;;3.50;;
75718;SDS011;64340;48.534;-3.036;2023-04-24T12:15:25;6.40;;;3.70;;
75718;SDS011;64340;48.534;-3.036;2023-04-24T12:17:51;6.25;;;3.42;;
75718;SDS011;64340;48.534;-3.036;2023-04-24T12:20:23;5.32;;;3.10;;
75718;SDS011;64340;48.534;-3.036;2023-04-24T12:22:53;5.63;;;3.10;;
75718;SDS011;64340;48.534;-3.036;2023-04-24T12:25:25;8.10;;;3.33;;
75718;SDS011;64340;48.534;-3.036;2023-04-24T12:30:48;5.82;;;3.40;;
75718;SDS011;64340;48.534;-3.036;2023-04-24T12:33:18;5.63;;;3.10;;
75718;SDS011;64340;48.534;-3.036;2023-04-24T12:35:45;5.30;;;3.20;;
75718;SDS011;64340;48.534;-3.036;2023-04-24T12:38:13;6.65;;;3.35;;
75718;SDS011;64340;48.534;-3.036;2023-04-24T12:40:41;5.25;;;2.83;;
75718;SDS011;64340;48.534;-3.036;2023-04-24T12:43:17;4.90;;;2.92;;
75718;SDS011;64340;48.534;-3.036;2023-04-24T12:45:44;7.35;;;3.63;;
75718;SDS011;64340;48.534;-3.036;2023-04-24T12:48:10;6.95;;;3.08;;
75718;SDS011;64340;48.534;-3.036;2023-04-24T12:50:36;5.15;;;2.92;;
75718;SDS011;64340;48.534;-3.036;2023-04-24T12:53:03;5.22;;;2.78;;
75718;SDS011;64340;48.534;-3.036;2023-04-24T12:55:29;5.30;;;2.90;;
75718;SDS011;64340;48.534;-3.036;2023-04-24T12:57:55;5.40;;;3.22;;
75718;SDS011;64340;48.534;-3.036;2023-04-24T13:00:21;4.45;;;2.97;;
75718;SDS011;64340;48.534;-3.036;2023-04-24T13:02:47;5.57;;;3.15;;
75718;SDS011;64340;48.534;-3.036;2023-04-24T13:05:12;5.22;;;2.90;;
75718;SDS011;64340;48.534;-3.036;2023-04-24T13:07:38;5.78;;;2.97;;
75718;SDS011;64340;48.534;-3.036;2023-04-24T13:10:05;6.57;;;3.08;;
75718;SDS011;64340;48.534;-3.036;2023-04-24T13:12:31;6.85;;;3.20;;
75718;SDS011;64340;48.534;-3.036;2023-04-24T13:14:57;5.88;;;3.13;;
75718;SDS011;64340;48.534;-3.036;2023-04-24T13:17:24;6.97;;;3.30;;
75718;SDS011;64340;48.534;-3.036;2023-04-24T13:19:50;5.13;;;2.80;;
75718;SDS011;64340;48.534;-3.036;2023-04-24T13:22:16;4.80;;;3.05;;
75718;SDS011;64340;48.534;-3.036;2023-04-24T13:24:43;5.95;;;2.80;;
75718;SDS011;64340;48.534;-3.036;2023-04-24T13:27:09;4.35;;;2.58;;
75718;SDS011;64340;48.534;-3.036;2023-04-24T13:29:35;4.32;;;2.63;;
75718;SDS011;64340;48.534;-3.036;2023-04-24T13:32:02;5.53;;;2.88;;
75718;SDS011;64340;48.534;-3.036;2023-04-24T13:34:28;4.68;;;2.38;;
75718;SDS011;64340;48.534;-3.036;2023-04-24T13:36:54;6.07;;;2.78;;
75718;SDS011;64340;48.534;-3.036;2023-04-24T13:39:22;5.18;;;2.67;;
75718;SDS011;64340;48.534;-3.036;2023-04-24T13:41:48;6.28;;;2.95;;
75718;SDS011;64340;48.534;-3.036;2023-04-24T13:44:16;5.72;;;2.50;;
75718;SDS011;64340;48.534;-3.036;2023-04-24T13:46:43;5.07;;;2.60;;
75718;SDS011;64340;48.534;-3.036;2023-04-24T13:49:11;5.15;;;2.63;;
75718;SDS011;64340;48.534;-3.036;2023-04-24T13:51:37;6.15;;;2.90;;
75718;SDS011;64340;48.534;-3.036;2023-04-24T13:54:04;3.75;;;2.15;;
75718;SDS011;64340;48.534;-3.036;2023-04-24T13:56:29;5.47;;;2.20;;
75718;SDS011;64340;48.534;-3.036;2023-04-24T13:58:55;6.38;;;2.50;;
75718;SDS011;64340;48.534;-3.036;2023-04-24T14:01:21;3.55;;;2.40;;
75718;SDS011;64340;48.534;-3.036;2023-04-24T14:03:51;5.45;;;2.40;;
75718;SDS011;64340;48.534;-3.036;2023-04-24T14:06:20;6.25;;;2.40;;
75718;SDS011;64340;48.534;-3.036;2023-04-24T14:08:47;6.03;;;2.58;;
75718;SDS011;64340;48.534;-3.036;2023-04-24T14:11:14;4.60;;;2.10;;
75718;SDS011;64340;48.534;-3.036;2023-04-24T14:13:43;6.75;;;2.55;;
75718;SDS011;64340;48.534;-3.036;2023-04-24T14:16:09;5.95;;;2.10;;
75718;SDS011;64340;48.534;-3.036;2023-04-24T14:18:36;4.13;;;2.10;;
75718;SDS011;64340;48.534;-3.036;2023-04-24T14:21:02;3.85;;;2.13;;
75718;SDS011;64340;48.534;-3.036;2023-04-24T14:23:28;5.15;;;2.47;;
75718;SDS011;64340;48.534;-3.036;2023-04-24T14:25:54;4.45;;;2.33;;
75718;SDS011;64340;48.534;-3.036;2023-04-24T14:28:20;4.53;;;2.08;;
75718;SDS011;64340;48.534;-3.036;2023-04-24T14:30:46;3.97;;;2.00;;
75718;SDS011;64340;48.534;-3.036;2023-04-24T14:33:13;4.38;;;2.20;;
75718;SDS011;64340;48.534;-3.036;2023-04-24T14:35:40;4.93;;;2.50;;
75718;SDS011;64340;48.534;-3.036;2023-04-24T14:38:07;4.18;;;1.98;;
75718;SDS011;64340;48.534;-3.036;2023-04-24T14:40:33;5.70;;;2.42;;
75718;SDS011;64340;48.534;-3.036;2023-04-24T14:42:58;6.88;;;2.33;;
75718;SDS011;64340;48.534;-3.036;2023-04-24T14:45:25;4.60;;;2.28;;